sensor_id;sensor_type;location;lat;lon;timestamp;P1;durP1;ratioP1;P2;durP2;ratioP2
42802;SDS011;28447;48.682;9.022;2023-03-21T05:01:53;6.53;;;4.97;;
42802;SDS011;28447;48.682;9.022;2023-03-21T05:04:20;7.00;;;5.37;;
42802;SDS011;28447;48.682;9.022;2023-03-21T05:06:46;8.00;;;4.60;;
42802;SDS011;28447;48.682;9.022;2023-03-21T05:09:12;7.63;;;4.93;;
42802;SDS011;28447;48.682;9.022;2023-03-21T05:11:38;9.60;;;4.97;;
42802;SDS011;28447;48.682;9.022;2023-03-21T05:14:08;6.23;;;5.03;;
42802;SDS011;28447;48.682;9.022;2023-03-21T05:16:35;7.83;;;4.70;;
42802;SDS011;28447;48.682;9.022;2023-03-21T05:19:09;8.33;;;5.17;;
42802;SDS011;28447;48.682;9.022;2023-03-21T05:21:38;8.40;;;5.70;;
42802;SDS011;28447;48.682;9.022;2023-03-21T05:24:07;9.60;;;5.70;;
42802;SDS011;28447;48.682;9.022;2023-03-21T05:26:36;10.47;;;5.97;;
42802;SDS011;28447;48.682;9.022;2023-03-21T05:29:02;7.30;;;5.97;;
42802;SDS011;28447;48.682;9.022;2023-03-21T05:31:28;9.23;;;6.80;;
42802;SDS011;28447;48.682;9.022;2023-03-21T05:33:54;9.27;;;6.80;;
42802;SDS011;28447;48.682;9.022;2023-03-21T05:36:20;12.57;;;6.57;;
42802;SDS011;28447;48.682;9.022;2023-03-21T05:38:45;9.10;;;6.23;;
42802;SDS011;28447;48.682;9.022;2023-03-21T05:41:14;8.13;;;5.77;;
42802;SDS011;28447;48.682;9.022;2023-03-21T05:43:41;10.17;;;6.90;;
42802;SDS011;28447;48.682;9.022;2023-03-21T05:46:06;6.57;;;5.50;;
42802;SDS011;28447;48.682;9.022;2023-03-21T05:48:32;8.20;;;6.57;;
42802;SDS011;28447;48.682;9.022;2023-03-21T05:50:59;10.97;;;7.20;;
42802;SDS011;28447;48.682;9.022;2023-03-21T05:53:25;9.10;;;6.47;;
42802;SDS011;28447;48.682;9.022;2023-03-21T05:55:51;8.83;;;7.13;;
42802;SDS011;28447;48.682;9.022;2023-03-21T05:58:16;12.60;;;6.40;;
42802;SDS011;28447;48.682;9.022;2023-03-21T06:00:42;7.80;;;5.87;;
42802;SDS011;28447;48.682;9.022;2023-03-21T06:03:07;10.70;;;6.57;;
42802;SDS011;28447;48.682;9.022;2023-03-21T06:05:33;6.27;;;5.23;;
42802;SDS011;28447;48.682;9.022;2023-03-21T06:07:59;7.03;;;4.83;;
42802;SDS011;28447;48.682;9.022;2023-03-21T06:10:24;8.40;;;5.90;;
42802;SDS011;28447;48.682;9.022;2023-03-21T06:12:50;6.73;;;5.63;;
42802;SDS011;28447;48.682;9.022;2023-03-21T06:15:16;8.10;;;5.37;;
42802;SDS011;28447;48.682;9.022;2023-03-21T06:17:42;7.83;;;5.50;;
42802;SDS011;28447;48.682;9.022;2023-03-21T06:20:08;5.90;;;5.17;;
42802;SDS011;28447;48.682;9.022;2023-03-21T06:22:34;8.63;;;6.40;;
42802;SDS011;28447;48.682;9.022;2023-03-21T06:25:00;12.73;;;5.47;;
42802;SDS011;28447;48.682;9.022;2023-03-21T06:27:26;7.97;;;5.37;;
42802;SDS011;28447;48.682;9.022;2023-03-21T06:29:52;6.60;;;5.03;;
42802;SDS011;28447;48.682;9.022;2023-03-21T06:32:17;7.67;;;5.97;;
42802;SDS011;28447;48.682;9.022;2023-03-21T06:34:43;6.90;;;5.00;;
42802;SDS011;28447;48.682;9.022;2023-03-21T06:37:09;6.27;;;4.60;;
42802;SDS011;28447;48.682;9.022;2023-03-21T06:39:34;8.80;;;5.70;;
42802;SDS011;28447;48.682;9.022;2023-03-21T06:42:00;8.23;;;4.90;;
42802;SDS011;28447;48.682;9.022;2023-03-21T06:44:26;7.33;;;4.93;;
42802;SDS011;28447;48.682;9.022;2023-03-21T06:46:52;8.63;;;5.50;;
42802;SDS011;28447;48.682;9.022;2023-03-21T06:49:18;8.10;;;5.53;;
42802;SDS011;28447;48.682;9.022;2023-03-21T06:51:45;6.20;;;5.43;;
42802;SDS011;28447;48.682;9.022;2023-03-21T06:54:10;6.90;;;4.97;;
42802;SDS011;28447;48.682;9.022;2023-03-21T06:56:38;7.53;;;4.87;;
42802;SDS011;28447;48.682;9.022;2023-03-21T06:59:05;5.80;;;4.60;;
42802;SDS011;28447;48.682;9.022;2023-03-21T07:01:30;5.60;;;4.70;;
42802;SDS011;28447;48.682;9.022;2023-03-21T07:03:56;6.97;;;4.67;;
42802;SDS011;28447;48.682;9.022;2023-03-21T07:06:23;5.67;;;4.80;;
42802;SDS011;28447;48.682;9.022;2023-03-21T07:08:53;7.27;;;5.13;;
42802;SDS011;28447;48.682;9.022;2023-03-21T07:11:20;6.10;;;5.10;;
42802;SDS011;28447;48.682;9.022;2023-03-21T07:13:46;7.73;;;4.80;;
42802;SDS011;28447;48.682;9.022;2023-03-21T07:16:13;6.93;;;5.03;;
42802;SDS011;28447;48.682;9.022;2023-03-21T07:18:40;6.80;;;4.97;;
42802;SDS011;28447;48.682;9.022;2023-03-21T07:21:06;9.43;;;5.30;;
42802;SDS011;28447;48.682;9.022;2023-03-21T07:23:32;11.53;;;4.90;;
42802;SDS011;28447;48.682;9.022;2023-03-21T07:25:58;7.60;;;4.20;;
42802;SDS011;28447;48.682;9.022;2023-03-21T07:28:25;6.97;;;4.60;;
42802;SDS011;28447;48.682;9.022;2023-03-21T07:30:55;5.37;;;4.37;;
42802;SDS011;28447;48.682;9.022;2023-03-21T07:33:23;5.10;;;4.10;;
42802;SDS011;28447;48.682;9.022;2023-03-21T07:35:50;5.40;;;4.40;;
42802;SDS011;28447;48.682;9.022;2023-03-21T07:38:17;5.67;;;4.57;;
42802;SDS011;28447;48.682;9.022;2023-03-21T07:40:44;5.63;;;3.60;;
42802;SDS011;28447;48.682;9.022;2023-03-21T07:43:10;4.87;;;3.87;;
42802;SDS011;28447;48.682;9.022;2023-03-21T07:45:36;5.30;;;4.07;;
42802;SDS011;28447;48.682;9.022;2023-03-21T07:48:02;4.10;;;3.70;;
42802;SDS011;28447;48.682;9.022;2023-03-21T07:50:28;6.53;;;4.37;;
42802;SDS011;28447;48.682;9.022;2023-03-21T07:52:54;6.77;;;4.50;;
42802;SDS011;28447;48.682;9.022;2023-03-21T07:55:19;5.90;;;3.50;;
42802;SDS011;28447;48.682;9.022;2023-03-21T07:57:48;6.00;;;4.17;;
42802;SDS011;28447;48.682;9.022;2023-03-21T08:00:15;5.10;;;3.70;;
42802;SDS011;28447;48.682;9.022;2023-03-21T08:02:47;3.93;;;3.30;;
42802;SDS011;28447;48.682;9.022;2023-03-21T08:05:14;3.77;;;3.37;;
42802;SDS011;28447;48.682;9.022;2023-03-21T08:07:40;5.00;;;3.17;;
42802;SDS011;28447;48.682;9.022;2023-03-21T08:10:06;3.97;;;2.93;;
42802;SDS011;28447;48.682;9.022;2023-03-21T08:12:32;4.07;;;2.83;;
42802;SDS011;28447;48.682;9.022;2023-03-21T08:14:57;3.80;;;3.27;;
42802;SDS011;28447;48.682;9.022;2023-03-21T08:17:23;7.53;;;2.93;;
42802;SDS011;28447;48.682;9.022;2023-03-21T08:19:49;4.80;;;3.47;;
42802;SDS011;28447;48.682;9.022;2023-03-21T08:22:14;3.80;;;3.13;;
42802;SDS011;28447;48.682;9.022;2023-03-21T08:24:41;4.30;;;3.27;;
42802;SDS011;28447;48.682;9.022;2023-03-21T08:27:06;4.30;;;3.00;;
42802;SDS011;28447;48.682;9.022;2023-03-21T08:29:32;3.87;;;2.87;;
42802;SDS011;28447;48.682;9.022;2023-03-21T08:31:59;4.50;;;3.40;;
42802;SDS011;28447;48.682;9.022;2023-03-21T08:34:24;5.43;;;3.17;;
42802;SDS011;28447;48.682;9.022;2023-03-21T08:36:50;3.77;;;2.80;;
42802;SDS011;28447;48.682;9.022;2023-03-21T08:39:16;3.97;;;3.00;;
42802;SDS011;28447;48.682;9.022;2023-03-21T08:41:41;3.60;;;3.07;;
42802;SDS011;28447;48.682;9.022;2023-03-21T08:44:08;5.93;;;2.60;;
42802;SDS011;28447;48.682;9.022;2023-03-21T08:46:34;4.63;;;3.03;;
42802;SDS011;28447;48.682;9.022;2023-03-21T08:49:00;2.93;;;2.60;;
42802;SDS011;28447;48.682;9.022;2023-03-21T08:51:26;6.57;;;3.10;;
42802;SDS011;28447;48.682;9.022;2023-03-21T08:53:51;3.30;;;2.33;;
42802;SDS011;28447;48.682;9.022;2023-03-21T08:56:17;5.53;;;2.90;;
42802;SDS011;28447;48.682;9.022;2023-03-21T08:58:42;3.73;;;2.60;;
42802;SDS011;28447;48.682;9.022;2023-03-21T09:01:09;3.97;;;3.00;;
42802;SDS011;28447;48.682;9.022;2023-03-21T09:03:38;5.23;;;2.60;;
42802;SDS011;28447;48.682;9.022;2023-03-21T09:06:04;3.37;;;2.70;;
42802;SDS011;28447;48.682;9.022;2023-03-21T09:08:30;7.13;;;2.80;;
42802;SDS011;28447;48.682;9.022;2023-03-21T09:10:55;4.20;;;3.00;;
42802;SDS011;28447;48.682;9.022;2023-03-21T09:13:21;3.00;;;2.50;;
42802;SDS011;28447;48.682;9.022;2023-03-21T09:15:48;5.60;;;3.07;;
42802;SDS011;28447;48.682;9.022;2023-03-21T09:18:14;4.80;;;2.97;;
42802;SDS011;28447;48.682;9.022;2023-03-21T09:20:46;5.07;;;3.70;;
42802;SDS011;28447;48.682;9.022;2023-03-21T09:23:13;4.17;;;3.00;;
42802;SDS011;28447;48.682;9.022;2023-03-21T09:25:39;3.93;;;3.30;;
42802;SDS011;28447;48.682;9.022;2023-03-21T09:28:06;3.60;;;3.10;;
42802;SDS011;28447;48.682;9.022;2023-03-21T09:30:32;5.40;;;3.10;;
42802;SDS011;28447;48.682;9.022;2023-03-21T09:33:00;3.30;;;2.33;;
42802;SDS011;28447;48.682;9.022;2023-03-21T09:35:27;3.50;;;2.73;;
42802;SDS011;28447;48.682;9.022;2023-03-21T09:37:54;2.90;;;2.40;;
42802;SDS011;28447;48.682;9.022;2023-03-21T09:43:26;3.60;;;2.40;;
42802;SDS011;28447;48.682;9.022;2023-03-21T09:51:31;2.70;;;2.40;;
42802;SDS011;28447;48.682;9.022;2023-03-21T09:54:12;2.50;;;2.10;;
42802;SDS011;28447;48.682;9.022;2023-03-21T09:56:44;6.27;;;2.80;;
42802;SDS011;28447;48.682;9.022;2023-03-21T09:59:19;3.00;;;2.50;;
42802;SDS011;28447;48.682;9.022;2023-03-21T10:01:49;3.70;;;2.93;;
42802;SDS011;28447;48.682;9.022;2023-03-21T10:04:15;3.60;;;2.70;;
42802;SDS011;28447;48.682;9.022;2023-03-21T10:06:42;3.10;;;2.30;;
42802;SDS011;28447;48.682;9.022;2023-03-21T10:09:13;3.33;;;2.10;;
42802;SDS011;28447;48.682;9.022;2023-03-21T10:11:49;2.80;;;2.50;;
42802;SDS011;28447;48.682;9.022;2023-03-21T10:14:20;3.13;;;2.50;;
42802;SDS011;28447;48.682;9.022;2023-03-21T10:16:51;2.50;;;1.80;;
42802;SDS011;28447;48.682;9.022;2023-03-21T10:19:22;3.00;;;2.60;;
42802;SDS011;28447;48.682;9.022;2023-03-21T10:21:49;2.27;;;2.00;;
42802;SDS011;28447;48.682;9.022;2023-03-21T10:24:16;2.57;;;1.90;;
42802;SDS011;28447;48.682;9.022;2023-03-21T10:26:49;3.93;;;2.20;;
42802;SDS011;28447;48.682;9.022;2023-03-21T10:29:15;2.70;;;2.30;;
42802;SDS011;28447;48.682;9.022;2023-03-21T10:31:42;2.60;;;2.13;;
42802;SDS011;28447;48.682;9.022;2023-03-21T10:34:13;2.60;;;2.10;;
42802;SDS011;28447;48.682;9.022;2023-03-21T10:36:39;4.47;;;2.87;;
42802;SDS011;28447;48.682;9.022;2023-03-21T10:39:06;2.63;;;2.23;;
42802;SDS011;28447;48.682;9.022;2023-03-21T10:41:40;3.90;;;2.37;;
42802;SDS011;28447;48.682;9.022;2023-03-21T10:44:14;4.17;;;2.60;;
42802;SDS011;28447;48.682;9.022;2023-03-21T10:46:52;3.80;;;3.33;;
42802;SDS011;28447;48.682;9.022;2023-03-21T10:49:18;4.00;;;3.10;;
42802;SDS011;28447;48.682;9.022;2023-03-21T10:51:45;4.33;;;3.30;;
42802;SDS011;28447;48.682;9.022;2023-03-21T10:54:17;4.13;;;3.20;;
42802;SDS011;28447;48.682;9.022;2023-03-21T10:59:21;5.10;;;4.03;;
42802;SDS011;28447;48.682;9.022;2023-03-21T11:01:49;4.30;;;3.50;;
42802;SDS011;28447;48.682;9.022;2023-03-21T11:04:17;5.53;;;3.63;;
42802;SDS011;28447;48.682;9.022;2023-03-21T11:06:50;5.00;;;4.40;;
42802;SDS011;28447;48.682;9.022;2023-03-21T11:09:19;4.33;;;3.90;;
42802;SDS011;28447;48.682;9.022;2023-03-21T11:11:50;4.67;;;3.60;;
42802;SDS011;28447;48.682;9.022;2023-03-21T11:14:25;4.83;;;3.90;;
42802;SDS011;28447;48.682;9.022;2023-03-21T11:17:06;4.70;;;3.43;;
42802;SDS011;28447;48.682;9.022;2023-03-21T11:19:59;5.80;;;4.03;;
42802;SDS011;28447;48.682;9.022;2023-03-21T11:22:29;8.27;;;4.00;;
42802;SDS011;28447;48.682;9.022;2023-03-21T11:25:08;6.33;;;3.80;;
42802;SDS011;28447;48.682;9.022;2023-03-21T11:27:50;6.73;;;4.70;;
42802;SDS011;28447;48.682;9.022;2023-03-21T11:30:22;5.03;;;4.33;;
42802;SDS011;28447;48.682;9.022;2023-03-21T11:32:52;4.53;;;3.80;;
42802;SDS011;28447;48.682;9.022;2023-03-21T11:35:37;5.60;;;3.90;;
42802;SDS011;28447;48.682;9.022;2023-03-21T11:38:04;4.60;;;4.10;;
42802;SDS011;28447;48.682;9.022;2023-03-21T11:40:35;6.23;;;4.03;;
42802;SDS011;28447;48.682;9.022;2023-03-21T11:48:41;5.13;;;4.43;;
42802;SDS011;28447;48.682;9.022;2023-03-21T11:51:26;6.90;;;3.90;;
42802;SDS011;28447;48.682;9.022;2023-03-21T11:54:20;5.23;;;3.97;;
42802;SDS011;28447;48.682;9.022;2023-03-21T12:00:27;6.07;;;3.80;;
42802;SDS011;28447;48.682;9.022;2023-03-21T12:02:56;4.60;;;3.70;;
42802;SDS011;28447;48.682;9.022;2023-03-21T12:05:57;7.93;;;3.30;;
42802;SDS011;28447;48.682;9.022;2023-03-21T12:08:39;4.70;;;3.20;;
42802;SDS011;28447;48.682;9.022;2023-03-21T12:11:24;8.30;;;3.80;;
42802;SDS011;28447;48.682;9.022;2023-03-21T12:20:06;3.97;;;3.40;;
42802;SDS011;28447;48.682;9.022;2023-03-21T12:25:53;2.73;;;2.40;;
42802;SDS011;28447;48.682;9.022;2023-03-21T12:33:52;2.63;;;2.30;;
42802;SDS011;28447;48.682;9.022;2023-03-21T12:39:28;2.70;;;2.00;;
42802;SDS011;28447;48.682;9.022;2023-03-21T12:45:18;2.73;;;2.30;;
42802;SDS011;28447;48.682;9.022;2023-03-21T12:47:49;2.97;;;2.23;;
42802;SDS011;28447;48.682;9.022;2023-03-21T12:50:20;2.90;;;2.40;;
42802;SDS011;28447;48.682;9.022;2023-03-21T12:53:25;2.30;;;2.10;;
42802;SDS011;28447;48.682;9.022;2023-03-21T12:55:50;2.70;;;2.30;;
42802;SDS011;28447;48.682;9.022;2023-03-21T12:58:17;2.37;;;2.07;;
42802;SDS011;28447;48.682;9.022;2023-03-21T13:00:47;5.73;;;2.10;;
42802;SDS011;28447;48.682;9.022;2023-03-21T13:03:19;2.53;;;2.13;;
42802;SDS011;28447;48.682;9.022;2023-03-21T13:06:00;6.67;;;2.20;;
42802;SDS011;28447;48.682;9.022;2023-03-21T13:10:56;3.13;;;2.20;;
42802;SDS011;28447;48.682;9.022;2023-03-21T13:13:25;2.00;;;1.83;;
42802;SDS011;28447;48.682;9.022;2023-03-21T13:16:01;2.97;;;2.07;;
42802;SDS011;28447;48.682;9.022;2023-03-21T13:21:20;2.97;;;2.33;;
42802;SDS011;28447;48.682;9.022;2023-03-21T13:24:00;3.67;;;2.40;;
42802;SDS011;28447;48.682;9.022;2023-03-21T13:26:38;2.20;;;2.00;;
42802;SDS011;28447;48.682;9.022;2023-03-21T13:29:11;5.00;;;2.27;;
42802;SDS011;28447;48.682;9.022;2023-03-21T13:31:42;2.60;;;2.33;;
42802;SDS011;28447;48.682;9.022;2023-03-21T13:34:09;6.03;;;2.47;;
42802;SDS011;28447;48.682;9.022;2023-03-21T13:36:43;3.10;;;2.50;;
42802;SDS011;28447;48.682;9.022;2023-03-21T13:39:18;5.23;;;3.27;;
42802;SDS011;28447;48.682;9.022;2023-03-21T13:41:48;3.70;;;2.83;;
42802;SDS011;28447;48.682;9.022;2023-03-21T13:46:51;3.40;;;2.70;;
42802;SDS011;28447;48.682;9.022;2023-03-21T13:49:25;3.63;;;3.10;;
42802;SDS011;28447;48.682;9.022;2023-03-21T13:51:57;3.73;;;3.20;;
42802;SDS011;28447;48.682;9.022;2023-03-21T14:00:13;3.30;;;2.87;;
42802;SDS011;28447;48.682;9.022;2023-03-21T14:05:37;3.90;;;3.10;;
42802;SDS011;28447;48.682;9.022;2023-03-21T14:08:04;2.80;;;2.50;;
42802;SDS011;28447;48.682;9.022;2023-03-21T14:10:41;3.00;;;2.70;;
42802;SDS011;28447;48.682;9.022;2023-03-21T14:13:16;3.67;;;2.60;;
42802;SDS011;28447;48.682;9.022;2023-03-21T14:15:46;3.80;;;2.20;;
42802;SDS011;28447;48.682;9.022;2023-03-21T14:18:24;3.67;;;2.27;;
42802;SDS011;28447;48.682;9.022;2023-03-21T14:20:55;3.07;;;2.57;;
42802;SDS011;28447;48.682;9.022;2023-03-21T14:23:23;3.13;;;2.83;;
42802;SDS011;28447;48.682;9.022;2023-03-21T14:25:49;3.10;;;2.80;;
42802;SDS011;28447;48.682;9.022;2023-03-21T14:28:19;2.83;;;2.63;;
42802;SDS011;28447;48.682;9.022;2023-03-21T14:30:50;3.23;;;2.70;;
42802;SDS011;28447;48.682;9.022;2023-03-21T14:33:52;5.00;;;2.50;;
42802;SDS011;28447;48.682;9.022;2023-03-21T14:36:27;3.97;;;2.40;;
42802;SDS011;28447;48.682;9.022;2023-03-21T14:41:29;4.53;;;2.53;;
42802;SDS011;28447;48.682;9.022;2023-03-21T14:47:00;3.93;;;2.77;;
42802;SDS011;28447;48.682;9.022;2023-03-21T14:49:29;5.00;;;2.60;;
42802;SDS011;28447;48.682;9.022;2023-03-21T14:51:58;2.40;;;2.10;;
42802;SDS011;28447;48.682;9.022;2023-03-21T14:54:27;3.57;;;2.40;;
42802;SDS011;28447;48.682;9.022;2023-03-21T14:56:55;3.67;;;2.10;;
42802;SDS011;28447;48.682;9.022;2023-03-21T14:59:35;1.70;;;1.60;;
42802;SDS011;28447;48.682;9.022;2023-03-21T15:02:03;2.20;;;1.80;;
42802;SDS011;28447;48.682;9.022;2023-03-21T15:04:54;3.20;;;1.80;;
42802;SDS011;28447;48.682;9.022;2023-03-21T15:07:29;4.83;;;1.87;;
42802;SDS011;28447;48.682;9.022;2023-03-21T15:09:58;1.70;;;1.57;;
42802;SDS011;28447;48.682;9.022;2023-03-21T15:12:27;4.43;;;1.90;;
42802;SDS011;28447;48.682;9.022;2023-03-21T15:14:53;2.83;;;1.60;;
42802;SDS011;28447;48.682;9.022;2023-03-21T15:17:20;1.93;;;1.63;;
42802;SDS011;28447;48.682;9.022;2023-03-21T15:19:46;2.50;;;1.40;;
42802;SDS011;28447;48.682;9.022;2023-03-21T15:22:14;2.40;;;1.70;;
42802;SDS011;28447;48.682;9.022;2023-03-21T15:24:49;1.50;;;1.40;;
42802;SDS011;28447;48.682;9.022;2023-03-21T15:27:19;1.80;;;1.40;;
42802;SDS011;28447;48.682;9.022;2023-03-21T15:29:49;2.70;;;2.00;;
42802;SDS011;28447;48.682;9.022;2023-03-21T15:32:19;2.23;;;1.60;;
42802;SDS011;28447;48.682;9.022;2023-03-21T15:34:50;2.83;;;1.67;;
42802;SDS011;28447;48.682;9.022;2023-03-21T15:37:26;2.10;;;1.80;;
42802;SDS011;28447;48.682;9.022;2023-03-21T15:39:52;3.13;;;1.83;;
42802;SDS011;28447;48.682;9.022;2023-03-21T15:45:44;6.13;;;3.47;;
42802;SDS011;28447;48.682;9.022;2023-03-21T15:48:26;3.80;;;2.80;;
42802;SDS011;28447;48.682;9.022;2023-03-21T15:50:56;4.67;;;3.07;;
42802;SDS011;28447;48.682;9.022;2023-03-21T15:53:23;6.47;;;2.80;;
42802;SDS011;28447;48.682;9.022;2023-03-21T15:55:50;8.70;;;3.17;;
42802;SDS011;28447;48.682;9.022;2023-03-21T15:58:31;5.43;;;2.70;;
42802;SDS011;28447;48.682;9.022;2023-03-21T16:01:05;6.93;;;3.37;;
42802;SDS011;28447;48.682;9.022;2023-03-21T16:03:40;3.13;;;2.80;;
42802;SDS011;28447;48.682;9.022;2023-03-21T16:08:41;7.47;;;3.00;;
42802;SDS011;28447;48.682;9.022;2023-03-21T16:13:43;6.43;;;3.07;;
42802;SDS011;28447;48.682;9.022;2023-03-21T16:16:13;4.63;;;2.57;;
42802;SDS011;28447;48.682;9.022;2023-03-21T16:18:47;8.30;;;2.80;;
42802;SDS011;28447;48.682;9.022;2023-03-21T16:21:16;4.40;;;3.30;;
42802;SDS011;28447;48.682;9.022;2023-03-21T16:23:43;4.63;;;3.70;;
42802;SDS011;28447;48.682;9.022;2023-03-21T16:26:13;3.70;;;2.90;;
42802;SDS011;28447;48.682;9.022;2023-03-21T16:28:40;3.43;;;2.90;;
42802;SDS011;28447;48.682;9.022;2023-03-21T16:31:26;5.73;;;3.10;;
42802;SDS011;28447;48.682;9.022;2023-03-21T16:33:53;5.47;;;3.23;;
42802;SDS011;28447;48.682;9.022;2023-03-21T16:36:23;3.73;;;3.00;;
42802;SDS011;28447;48.682;9.022;2023-03-21T16:38:51;6.73;;;3.30;;
42802;SDS011;28447;48.682;9.022;2023-03-21T16:41:17;3.77;;;3.20;;
42802;SDS011;28447;48.682;9.022;2023-03-21T16:43:44;4.80;;;3.30;;
42802;SDS011;28447;48.682;9.022;2023-03-21T16:46:14;4.90;;;3.10;;
42802;SDS011;28447;48.682;9.022;2023-03-21T16:48:41;7.63;;;3.60;;
42802;SDS011;28447;48.682;9.022;2023-03-21T16:51:15;7.13;;;3.10;;
42802;SDS011;28447;48.682;9.022;2023-03-21T16:53:43;5.27;;;2.83;;
42802;SDS011;28447;48.682;9.022;2023-03-21T16:56:16;3.00;;;2.67;;
42802;SDS011;28447;48.682;9.022;2023-03-21T16:58:48;8.77;;;4.10;;
42802;SDS011;28447;48.682;9.022;2023-03-21T17:01:15;5.53;;;3.90;;
42802;SDS011;28447;48.682;9.022;2023-03-21T17:03:49;4.17;;;2.97;;
42802;SDS011;28447;48.682;9.022;2023-03-21T17:06:20;4.17;;;3.20;;
42802;SDS011;28447;48.682;9.022;2023-03-21T17:08:48;6.40;;;3.30;;
42802;SDS011;28447;48.682;9.022;2023-03-21T17:11:15;5.67;;;3.20;;
42802;SDS011;28447;48.682;9.022;2023-03-21T17:13:44;6.00;;;3.10;;
42802;SDS011;28447;48.682;9.022;2023-03-21T17:16:14;3.83;;;3.47;;
42802;SDS011;28447;48.682;9.022;2023-03-21T17:18:42;6.10;;;3.07;;
42802;SDS011;28447;48.682;9.022;2023-03-21T17:21:10;6.00;;;3.00;;
42802;SDS011;28447;48.682;9.022;2023-03-21T17:23:43;4.00;;;2.90;;
42802;SDS011;28447;48.682;9.022;2023-03-21T17:26:11;3.40;;;3.10;;
42802;SDS011;28447;48.682;9.022;2023-03-21T17:28:38;5.20;;;3.03;;
42802;SDS011;28447;48.682;9.022;2023-03-21T17:31:05;6.00;;;2.90;;
42802;SDS011;28447;48.682;9.022;2023-03-21T17:33:40;4.93;;;3.13;;
42802;SDS011;28447;48.682;9.022;2023-03-21T17:36:16;5.27;;;3.50;;
42802;SDS011;28447;48.682;9.022;2023-03-21T17:38:44;5.57;;;2.57;;
42802;SDS011;28447;48.682;9.022;2023-03-21T17:41:11;4.13;;;3.10;;
42802;SDS011;28447;48.682;9.022;2023-03-21T17:43:38;3.97;;;3.33;;
42802;SDS011;28447;48.682;9.022;2023-03-21T17:46:04;4.77;;;3.50;;
42802;SDS011;28447;48.682;9.022;2023-03-21T17:48:30;9.23;;;3.43;;
42802;SDS011;28447;48.682;9.022;2023-03-21T17:50:56;7.13;;;3.43;;
42802;SDS011;28447;48.682;9.022;2023-03-21T17:53:21;6.83;;;3.47;;
42802;SDS011;28447;48.682;9.022;2023-03-21T17:55:47;5.30;;;3.70;;
42802;SDS011;28447;48.682;9.022;2023-03-21T17:58:13;6.83;;;3.47;;
42802;SDS011;28447;48.682;9.022;2023-03-21T18:00:38;6.50;;;3.50;;
42802;SDS011;28447;48.682;9.022;2023-03-21T18:03:04;6.07;;;3.70;;
42802;SDS011;28447;48.682;9.022;2023-03-21T18:05:30;4.53;;;3.37;;
42802;SDS011;28447;48.682;9.022;2023-03-21T18:07:57;7.33;;;3.03;;
42802;SDS011;28447;48.682;9.022;2023-03-21T18:10:24;5.30;;;4.30;;
42802;SDS011;28447;48.682;9.022;2023-03-21T18:12:50;9.03;;;3.80;;
42802;SDS011;28447;48.682;9.022;2023-03-21T18:15:20;12.33;;;4.37;;
42802;SDS011;28447;48.682;9.022;2023-03-21T18:17:47;7.60;;;4.50;;
42802;SDS011;28447;48.682;9.022;2023-03-21T18:20:13;6.93;;;4.30;;
42802;SDS011;28447;48.682;9.022;2023-03-21T18:22:41;6.93;;;4.13;;
42802;SDS011;28447;48.682;9.022;2023-03-21T18:25:07;7.63;;;4.60;;
42802;SDS011;28447;48.682;9.022;2023-03-21T18:27:33;8.57;;;4.63;;
42802;SDS011;28447;48.682;9.022;2023-03-21T18:29:59;7.93;;;4.00;;
42802;SDS011;28447;48.682;9.022;2023-03-21T18:32:25;8.23;;;4.73;;
42802;SDS011;28447;48.682;9.022;2023-03-21T18:34:51;15.43;;;7.20;;
42802;SDS011;28447;48.682;9.022;2023-03-21T18:37:17;12.23;;;8.50;;
42802;SDS011;28447;48.682;9.022;2023-03-21T18:39:43;10.63;;;7.67;;
42802;SDS011;28447;48.682;9.022;2023-03-21T18:42:10;11.67;;;5.60;;
42802;SDS011;28447;48.682;9.022;2023-03-21T18:44:39;6.80;;;4.87;;
42802;SDS011;28447;48.682;9.022;2023-03-21T18:47:09;8.57;;;5.57;;
42802;SDS011;28447;48.682;9.022;2023-03-21T18:49:35;7.13;;;4.90;;
42802;SDS011;28447;48.682;9.022;2023-03-21T18:52:02;6.67;;;5.00;;
42802;SDS011;28447;48.682;9.022;2023-03-21T18:54:29;6.87;;;4.80;;
42802;SDS011;28447;48.682;9.022;2023-03-21T18:56:55;8.90;;;5.80;;
42802;SDS011;28447;48.682;9.022;2023-03-21T18:59:21;6.33;;;5.13;;
42802;SDS011;28447;48.682;9.022;2023-03-21T19:01:49;9.70;;;6.90;;
42802;SDS011;28447;48.682;9.022;2023-03-21T19:04:16;13.63;;;7.27;;
42802;SDS011;28447;48.682;9.022;2023-03-21T19:06:43;8.87;;;5.53;;
42802;SDS011;28447;48.682;9.022;2023-03-21T19:09:10;7.93;;;5.60;;
42802;SDS011;28447;48.682;9.022;2023-03-21T19:11:38;8.10;;;5.07;;
42802;SDS011;28447;48.682;9.022;2023-03-21T19:14:07;9.70;;;5.20;;
42802;SDS011;28447;48.682;9.022;2023-03-21T19:16:34;13.80;;;8.33;;
42802;SDS011;28447;48.682;9.022;2023-03-21T19:19:00;11.10;;;7.40;;
42802;SDS011;28447;48.682;9.022;2023-03-21T19:21:27;11.40;;;7.07;;
42802;SDS011;28447;48.682;9.022;2023-03-21T19:23:53;14.30;;;8.80;;
42802;SDS011;28447;48.682;9.022;2023-03-21T19:26:20;11.00;;;8.13;;
42802;SDS011;28447;48.682;9.022;2023-03-21T19:28:46;10.17;;;6.23;;
42802;SDS011;28447;48.682;9.022;2023-03-21T19:31:11;5.17;;;3.60;;
42802;SDS011;28447;48.682;9.022;2023-03-21T19:33:37;6.53;;;4.10;;
42802;SDS011;28447;48.682;9.022;2023-03-21T19:36:03;11.10;;;5.50;;
42802;SDS011;28447;48.682;9.022;2023-03-21T19:38:29;9.50;;;4.90;;
42802;SDS011;28447;48.682;9.022;2023-03-21T19:40:58;5.43;;;4.00;;
42802;SDS011;28447;48.682;9.022;2023-03-21T19:43:28;8.50;;;5.57;;
42802;SDS011;28447;48.682;9.022;2023-03-21T19:45:54;7.63;;;6.33;;
42802;SDS011;28447;48.682;9.022;2023-03-21T19:48:24;9.93;;;6.73;;
42802;SDS011;28447;48.682;9.022;2023-03-21T19:50:51;8.30;;;5.70;;
42802;SDS011;28447;48.682;9.022;2023-03-21T19:53:17;10.33;;;5.43;;
42802;SDS011;28447;48.682;9.022;2023-03-21T19:55:42;9.80;;;5.73;;
42802;SDS011;28447;48.682;9.022;2023-03-21T19:58:08;8.53;;;6.07;;
42802;SDS011;28447;48.682;9.022;2023-03-21T20:00:34;10.03;;;6.20;;
42802;SDS011;28447;48.682;9.022;2023-03-21T20:03:00;8.07;;;5.67;;
42802;SDS011;28447;48.682;9.022;2023-03-21T20:05:27;12.33;;;6.17;;
42802;SDS011;28447;48.682;9.022;2023-03-21T20:07:53;13.50;;;6.40;;
42802;SDS011;28447;48.682;9.022;2023-03-21T20:10:22;8.60;;;5.90;;
42802;SDS011;28447;48.682;9.022;2023-03-21T20:12:51;8.10;;;5.57;;
42802;SDS011;28447;48.682;9.022;2023-03-21T20:15:17;7.80;;;5.47;;
42802;SDS011;28447;48.682;9.022;2023-03-21T20:17:43;10.40;;;6.80;;
42802;SDS011;28447;48.682;9.022;2023-03-21T20:20:09;8.50;;;6.30;;
42802;SDS011;28447;48.682;9.022;2023-03-21T20:22:46;10.67;;;7.40;;
42802;SDS011;28447;48.682;9.022;2023-03-21T20:25:13;7.97;;;6.47;;
42802;SDS011;28447;48.682;9.022;2023-03-21T20:27:40;7.87;;;5.93;;
42802;SDS011;28447;48.682;9.022;2023-03-21T20:30:08;8.33;;;5.53;;
42802;SDS011;28447;48.682;9.022;2023-03-21T20:32:36;10.73;;;7.40;;
42802;SDS011;28447;48.682;9.022;2023-03-21T20:35:06;8.73;;;6.37;;
42802;SDS011;28447;48.682;9.022;2023-03-21T20:37:34;12.40;;;7.63;;
42802;SDS011;28447;48.682;9.022;2023-03-21T20:40:01;10.47;;;6.30;;
42802;SDS011;28447;48.682;9.022;2023-03-21T20:42:34;10.63;;;6.93;;
42802;SDS011;28447;48.682;9.022;2023-03-21T20:45:01;8.50;;;6.27;;
42802;SDS011;28447;48.682;9.022;2023-03-21T20:47:27;8.50;;;6.40;;
42802;SDS011;28447;48.682;9.022;2023-03-21T20:49:52;10.57;;;5.37;;
42802;SDS011;28447;48.682;9.022;2023-03-21T20:52:20;6.10;;;4.90;;
42802;SDS011;28447;48.682;9.022;2023-03-21T20:54:48;7.93;;;5.00;;
42802;SDS011;28447;48.682;9.022;2023-03-21T20:57:13;6.10;;;4.73;;
42802;SDS011;28447;48.682;9.022;2023-03-21T20:59:41;7.27;;;3.93;;
42802;SDS011;28447;48.682;9.022;2023-03-21T21:02:09;8.70;;;5.20;;
42802;SDS011;28447;48.682;9.022;2023-03-21T21:04:35;8.10;;;5.03;;
42802;SDS011;28447;48.682;9.022;2023-03-21T21:07:01;4.60;;;4.00;;
42802;SDS011;28447;48.682;9.022;2023-03-21T21:09:26;6.40;;;5.10;;